Emine Anne — TCBX9 — position and weather

sailwx.info

Track history (hours):
 
Tides and Currents Weather Stations Pressure Air Temp Water Temp Dewpoint Dewpoint Depression Visibility Wind Speed Wind Dir Waves Ship Positions

Emine Anne

Last reported at 2015-Jan-25 17:17 UTC. Time now 2015-Jan-28 14:12 UTC.
Position N 41°16' E 029°39'.

Length 69 m; draft 2.4 m.

Type: Ship. MMSI: 271002305.

Date/timePositionNaut miles runAvg speedWind from/ knotsBaromVisibWave heightAir tempDewpointWater temp
2015-Jan-25 17:17N 41°16' E 029°39'7 9.3
2015-Jan-25 16:34N 41°16' E 029°30'  
2015-Jan-21 20:33N 41°20' E 029°31'407 8.0
2015-Jan-19 17:25N 44°30' E 037°43'7 7.9
2015-Jan-19 16:33N 44°36' E 037°48'5 5.4
2015-Jan-19 15:32N 44°39' E 037°55'0 0.0
2015-Jan-19 14:25N 44°39' E 037°55'0 0.0
2015-Jan-19 13:31N 44°39' E 037°55'0 0.0
2015-Jan-19 12:26N 44°39' E 037°55'0 0.0
2015-Jan-19 11:33N 44°39' E 037°55'0 0.0
2015-Jan-19 10:31N 44°39' E 037°55'0 0.0
2015-Jan-19 09:32N 44°39' E 037°55'0 0.0
2015-Jan-19 08:33N 44°39' E 037°55'0 0.0
2015-Jan-19 07:32N 44°39' E 037°55'0 0.0
2015-Jan-19 06:30N 44°39' E 037°55'0 0.0
2015-Jan-19 05:30N 44°39' E 037°55'4 4.4
2015-Jan-19 04:33N 44°41' E 037°50'3 3.2
2015-Jan-19 03:33N 44°44' E 037°48'0 0.0
2015-Jan-19 02:33N 44°44' E 037°48'0 0.0
2015-Jan-19 01:32N 44°44' E 037°48'0 0.0
2015-Jan-19 00:32N 44°44' E 037°48'0 0.0
2015-Jan-18 23:31N 44°44' E 037°48'0 0.0
2015-Jan-18 22:31N 44°44' E 037°48'0 0.0
2015-Jan-18 21:30N 44°44' E 037°48'0 0.0
2015-Jan-18 20:32N 44°44' E 037°48'0 0.0
2015-Jan-18 19:32N 44°44' E 037°48'0 0.0
2015-Jan-18 18:33N 44°44' E 037°48'0 0.0
2015-Jan-18 17:29N 44°44' E 037°48'0 0.0
2015-Jan-18 16:28N 44°44' E 037°48'0 0.0
2015-Jan-18 15:29N 44°44' E 037°48'0 0.0
2015-Jan-18 14:32N 44°44' E 037°48'0 0.0
2015-Jan-18 13:33N 44°44' E 037°48'0 0.0
2015-Jan-18 12:26N 44°44' E 037°48'0 0.0
2015-Jan-18 11:31N 44°44' E 037°48'0 0.0
2015-Jan-18 10:31N 44°44' E 037°48'0 0.0
2015-Jan-18 09:33N 44°44' E 037°48'0 0.5
2015-Jan-18 08:33N 44°43' E 037°48'5 5.1
2015-Jan-18 07:32N 44°39' E 037°53'0 0.1
2015-Jan-18 06:33N 44°39' E 037°53'0 0.0
2015-Jan-18 05:32N 44°39' E 037°53'0 0.1
2015-Jan-18 04:32N 44°39' E 037°53'0 0.0
2015-Jan-18 03:33N 44°39' E 037°53'0 0.0
2015-Jan-18 02:31N 44°39' E 037°53'0 0.0
2015-Jan-18 01:30N 44°39' E 037°53'0 0.0
2015-Jan-18 00:31N 44°39' E 037°53'0 0.0
2015-Jan-17 23:33N 44°39' E 037°53'0 0.0
2015-Jan-17 22:33N 44°39' E 037°53'0 0.0
2015-Jan-17 21:31N 44°39' E 037°53'0 0.0
2015-Jan-17 20:28N 44°39' E 037°53'0 0.0
2015-Jan-17 19:31N 44°39' E 037°53'0 0.0
2015-Jan-17 18:13N 44°39' E 037°53'0 0.0
2015-Jan-17 17:31N 44°39' E 037°53'0 0.0
2015-Jan-17 16:31N 44°39' E 037°53'0 0.0
2015-Jan-17 15:31N 44°39' E 037°53'0 0.0
2015-Jan-17 14:26N 44°39' E 037°53'0 0.0
2015-Jan-17 13:32N 44°39' E 037°53'0 0.0
2015-Jan-17 12:31N 44°39' E 037°53'0 0.0
2015-Jan-17 11:30N 44°39' E 037°53'0 0.0
2015-Jan-17 10:31N 44°39' E 037°53'0 0.0
2015-Jan-17 09:31N 44°39' E 037°53'0 0.0
2015-Jan-17 08:28N 44°39' E 037°53'0 0.0
2015-Jan-17 07:29N 44°39' E 037°53'0 0.0
2015-Jan-17 06:27N 44°39' E 037°53'0 0.0
2015-Jan-17 05:30N 44°39' E 037°53'0 0.0
2015-Jan-17 04:31N 44°39' E 037°53'0 0.0
2015-Jan-17 03:31N 44°39' E 037°53'0 0.0
2015-Jan-17 02:27N 44°39' E 037°53'0 0.0
2015-Jan-17 01:30N 44°39' E 037°53'0 0.0
2015-Jan-17 00:26N 44°39' E 037°53'0 0.0
2015-Jan-16 23:33N 44°39' E 037°53'0 0.0
2015-Jan-16 22:33N 44°39' E 037°53'0 0.0
2015-Jan-16 21:31N 44°39' E 037°53'0 0.0
2015-Jan-16 20:33N 44°39' E 037°53'0 0.0
2015-Jan-16 19:32N 44°39' E 037°53'0 0.0
2015-Jan-16 18:32N 44°39' E 037°53'0 0.0
2015-Jan-16 17:33N 44°39' E 037°53'0 0.0
2015-Jan-16 16:31N 44°39' E 037°53'0 0.0
2015-Jan-16 15:33N 44°39' E 037°53'0 0.0
2015-Jan-16 14:33N 44°39' E 037°53'0 0.0
2015-Jan-16 13:32N 44°39' E 037°53'0 0.0
2015-Jan-16 12:33N 44°39' E 037°53'0 0.0
2015-Jan-16 11:32N 44°39' E 037°53'0 0.0
2015-Jan-16 10:33N 44°39' E 037°53'0 0.0
2015-Jan-16 09:31N 44°39' E 037°53'0 0.0
2015-Jan-16 08:32N 44°39' E 037°53'0 0.1
2015-Jan-16 07:31N 44°39' E 037°53'0 0.1
2015-Jan-16 06:32N 44°39' E 037°53'0 0.0
2015-Jan-16 05:33N 44°39' E 037°53'0 0.0
2015-Jan-16 04:31N 44°39' E 037°53'0 0.0
2015-Jan-16 03:31N 44°39' E 037°53'0 0.0
2015-Jan-16 02:32N 44°39' E 037°53'3 3.2
2015-Jan-16 01:32N 44°36' E 037°52'9 9.0
2015-Jan-16 00:32N 44°29' E 037°45'  
Track history (hours):
 
Tides and Currents Weather Stations Pressure Air Temp Water Temp Dewpoint Dewpoint Depression Visibility Wind Speed Wind Dir Waves Ship Positions

Emine Anne

Last reported at 2015-Jan-25 17:17 UTC. Time now 2015-Jan-28 14:12 UTC.
Position N 41°16' E 029°39'.

Length 69 m; draft 2.4 m.

Type: Ship. MMSI: 271002305.

Date/timePositionNaut miles runAvg speedWind from/ knotsBaromVisibWave heightAir tempDewpointWater temp
2015-Jan-25 17:17N 41°16' E 029°39'7 9.3
2015-Jan-25 16:34N 41°16' E 029°30'  
2015-Jan-21 20:33N 41°20' E 029°31'407 8.0
2015-Jan-19 17:25N 44°30' E 037°43'7 7.9
2015-Jan-19 16:33N 44°36' E 037°48'5 5.4
2015-Jan-19 15:32N 44°39' E 037°55'0 0.0
2015-Jan-19 14:25N 44°39' E 037°55'0 0.0
2015-Jan-19 13:31N 44°39' E 037°55'0 0.0
2015-Jan-19 12:26N 44°39' E 037°55'0 0.0
2015-Jan-19 11:33N 44°39' E 037°55'0 0.0
2015-Jan-19 10:31N 44°39' E 037°55'0 0.0
2015-Jan-19 09:32N 44°39' E 037°55'0 0.0
2015-Jan-19 08:33N 44°39' E 037°55'0 0.0
2015-Jan-19 07:32N 44°39' E 037°55'0 0.0
2015-Jan-19 06:30N 44°39' E 037°55'0 0.0
2015-Jan-19 05:30N 44°39' E 037°55'4 4.4
2015-Jan-19 04:33N 44°41' E 037°50'3 3.2
2015-Jan-19 03:33N 44°44' E 037°48'0 0.0
2015-Jan-19 02:33N 44°44' E 037°48'0 0.0
2015-Jan-19 01:32N 44°44' E 037°48'0 0.0
2015-Jan-19 00:32N 44°44' E 037°48'0 0.0
2015-Jan-18 23:31N 44°44' E 037°48'0 0.0
2015-Jan-18 22:31N 44°44' E 037°48'0 0.0
2015-Jan-18 21:30N 44°44' E 037°48'0 0.0
2015-Jan-18 20:32N 44°44' E 037°48'0 0.0
2015-Jan-18 19:32N 44°44' E 037°48'0 0.0
2015-Jan-18 18:33N 44°44' E 037°48'0 0.0
2015-Jan-18 17:29N 44°44' E 037°48'0 0.0
2015-Jan-18 16:28N 44°44' E 037°48'0 0.0
2015-Jan-18 15:29N 44°44' E 037°48'0 0.0
2015-Jan-18 14:32N 44°44' E 037°48'0 0.0
2015-Jan-18 13:33N 44°44' E 037°48'0 0.0
2015-Jan-18 12:26N 44°44' E 037°48'0 0.0
2015-Jan-18 11:31N 44°44' E 037°48'0 0.0
2015-Jan-18 10:31N 44°44' E 037°48'0 0.0
2015-Jan-18 09:33N 44°44' E 037°48'0 0.5
2015-Jan-18 08:33N 44°43' E 037°48'5 5.1
2015-Jan-18 07:32N 44°39' E 037°53'0 0.1
2015-Jan-18 06:33N 44°39' E 037°53'0 0.0
2015-Jan-18 05:32N 44°39' E 037°53'0 0.1
2015-Jan-18 04:32N 44°39' E 037°53'0 0.0
2015-Jan-18 03:33N 44°39' E 037°53'0 0.0
2015-Jan-18 02:31N 44°39' E 037°53'0 0.0
2015-Jan-18 01:30N 44°39' E 037°53'0 0.0
2015-Jan-18 00:31N 44°39' E 037°53'0 0.0
2015-Jan-17 23:33N 44°39' E 037°53'0 0.0
2015-Jan-17 22:33N 44°39' E 037°53'0 0.0
2015-Jan-17 21:31N 44°39' E 037°53'0 0.0
2015-Jan-17 20:28N 44°39' E 037°53'0 0.0
2015-Jan-17 19:31N 44°39' E 037°53'0 0.0
2015-Jan-17 18:13N 44°39' E 037°53'0 0.0
2015-Jan-17 17:31N 44°39' E 037°53'0 0.0
2015-Jan-17 16:31N 44°39' E 037°53'0 0.0
2015-Jan-17 15:31N 44°39' E 037°53'0 0.0
2015-Jan-17 14:26N 44°39' E 037°53'0 0.0
2015-Jan-17 13:32N 44°39' E 037°53'0 0.0
2015-Jan-17 12:31N 44°39' E 037°53'0 0.0
2015-Jan-17 11:30N 44°39' E 037°53'0 0.0
2015-Jan-17 10:31N 44°39' E 037°53'0 0.0
2015-Jan-17 09:31N 44°39' E 037°53'0 0.0
2015-Jan-17 08:28N 44°39' E 037°53'0 0.0
2015-Jan-17 07:29N 44°39' E 037°53'0 0.0
2015-Jan-17 06:27N 44°39' E 037°53'0 0.0
2015-Jan-17 05:30N 44°39' E 037°53'0 0.0
2015-Jan-17 04:31N 44°39' E 037°53'0 0.0
2015-Jan-17 03:31N 44°39' E 037°53'0 0.0
2015-Jan-17 02:27N 44°39' E 037°53'0 0.0
2015-Jan-17 01:30N 44°39' E 037°53'0 0.0
2015-Jan-17 00:26N 44°39' E 037°53'0 0.0
2015-Jan-16 23:33N 44°39' E 037°53'0 0.0
2015-Jan-16 22:33N 44°39' E 037°53'0 0.0
2015-Jan-16 21:31N 44°39' E 037°53'0 0.0
2015-Jan-16 20:33N 44°39' E 037°53'0 0.0
2015-Jan-16 19:32N 44°39' E 037°53'0 0.0
2015-Jan-16 18:32N 44°39' E 037°53'0 0.0
2015-Jan-16 17:33N 44°39' E 037°53'0 0.0
2015-Jan-16 16:31N 44°39' E 037°53'0 0.0
2015-Jan-16 15:33N 44°39' E 037°53'0 0.0
2015-Jan-16 14:33N 44°39' E 037°53'0 0.0
2015-Jan-16 13:32N 44°39' E 037°53'0 0.0
2015-Jan-16 12:33N 44°39' E 037°53'0 0.0
2015-Jan-16 11:32N 44°39' E 037°53'0 0.0
2015-Jan-16 10:33N 44°39' E 037°53'0 0.0
2015-Jan-16 09:31N 44°39' E 037°53'0 0.0
2015-Jan-16 08:32N 44°39' E 037°53'0 0.1
2015-Jan-16 07:31N 44°39' E 037°53'0 0.1
2015-Jan-16 06:32N 44°39' E 037°53'0 0.0
2015-Jan-16 05:33N 44°39' E 037°53'0 0.0
2015-Jan-16 04:31N 44°39' E 037°53'0 0.0
2015-Jan-16 03:31N 44°39' E 037°53'0 0.0
2015-Jan-16 02:32N 44°39' E 037°53'3 3.2
2015-Jan-16 01:32N 44°36' E 037°52'9 9.0
2015-Jan-16 00:32N 44°29' E 037°45'  

Dump ship's entire track history